Aviation Digital Data Service (ADDS)

Output produced by METARs form (1824 UTC 22 November 2017)
found at http://www.aviationweather.gov/adds/metars/
 
TAF COR TGPY 221622Z 2218/2318 09013KT 9999 FEW020 
     BECMG 2223/2301 06006KT 
     PROB40 
     TEMPO 2304/2410 00000KT 
     BECMG 2311/2313 10011KT